Time;durP1;ratioP1;P1;durP2;ratioP2;P2;SDS_P1;SDS_P2;PMS_P1;PMS_P2;Temp;Humidity;BMP_temperature;BMP_pressure;BME280_temperature;BME280_humidity;BME280_pressure;Samples;Min_cycle;Max_cycle;Signal;HPM_P1;HPM_P2
2022/03/12 00:01:18;;;;;;;10.57;5.82;;;12.20;34.40;;;;;;5049767;28;20025;-72
2022/03/12 00:03:45;;;;;;;12.10;6.95;;;12.20;34.40;;;;;;5044720;28;20053;-72
2022/03/12 00:06:11;;;;;;;11.18;6.43;;;12.20;34.30;;;;;;5036674;28;20030;-73
2022/03/12 00:08:42;;;;;;;11.82;6.10;;;12.20;34.30;;;;;;5038168;28;20040;-72
2022/03/12 00:11:10;;;;;;;9.70;5.55;;;12.20;34.30;;;;;;5049530;28;20442;-72
2022/03/12 00:13:36;;;;;;;10.77;6.43;;;12.20;34.40;;;;;;5041094;28;20370;-73
2022/03/12 00:16:02;;;;;;;9.75;5.80;;;12.20;34.40;;;;;;5055026;28;20100;-72
2022/03/12 00:18:30;;;;;;;10.63;6.18;;;12.10;34.30;;;;;;5056326;28;20115;-72
2022/03/12 00:21:01;;;;;;;10.23;6.10;;;12.10;34.30;;;;;;5050799;28;20450;-72
2022/03/12 00:23:28;;;;;;;14.07;6.70;;;12.10;34.30;;;;;;5045804;28;20020;-72
2022/03/12 00:25:53;;;;;;;10.75;6.35;;;12.10;34.30;;;;;;5036542;28;20034;-72
2022/03/12 00:28:19;;;;;;;9.48;5.40;;;12.10;34.40;;;;;;5035232;28;20103;-72
2022/03/12 00:30:49;;;;;;;10.43;5.68;;;12.10;34.30;;;;;;5038832;28;20065;-72
2022/03/12 00:33:14;;;;;;;9.93;5.40;;;12.10;34.30;;;;;;5030964;28;20401;-72
2022/03/12 00:35:40;;;;;;;11.25;6.53;;;12.10;34.30;;;;;;5036230;28;20037;-72
2022/03/12 00:38:07;;;;;;;9.23;5.60;;;12.10;34.30;;;;;;5064233;28;20037;-72
2022/03/12 00:40:32;;;;;;;11.23;6.30;;;12.10;34.20;;;;;;5065420;28;20025;-72
2022/03/12 00:42:58;;;;;;;10.98;5.93;;;12.10;34.30;;;;;;5053430;28;20442;-72
2022/03/12 00:45:27;;;;;;;13.45;6.20;;;12.10;34.30;;;;;;5026244;28;20058;-73
2022/03/12 00:47:52;;;;;;;10.77;5.90;;;12.10;34.30;;;;;;5034616;28;20045;-72
2022/03/12 00:50:19;;;;;;;11.23;6.47;;;12.00;34.30;;;;;;5044932;28;20033;-72
2022/03/12 00:52:45;;;;;;;11.57;6.40;;;12.10;34.40;;;;;;5051779;28;20435;-72
2022/03/12 00:55:10;;;;;;;9.82;5.57;;;12.10;34.50;;;;;;5034393;28;20039;-72
2022/03/12 00:57:37;;;;;;;11.93;6.47;;;12.10;34.50;;;;;;5052494;28;20069;-72
2022/03/12 01:00:13;;;;;;;12.02;6.15;;;12.10;34.70;;;;;;5046508;28;20037;-72
2022/03/12 01:02:39;;;;;;;12.07;6.03;;;12.00;34.40;;;;;;5034550;28;20033;-72
2022/03/12 01:05:05;;;;;;;11.55;6.30;;;12.00;34.40;;;;;;5035200;28;20025;-72
2022/03/12 01:07:30;;;;;;;12.10;6.38;;;12.00;34.50;;;;;;5017844;28;20037;-72
2022/03/12 01:09:56;;;;;;;12.07;6.15;;;11.90;34.50;;;;;;5037686;28;20545;-73
2022/03/12 01:12:22;;;;;;;10.32;5.85;;;12.00;34.60;;;;;;5055141;28;20094;-72
2022/03/12 01:14:47;;;;;;;11.07;6.47;;;11.90;34.60;;;;;;5051746;28;20040;-73
2022/03/12 01:17:13;;;;;;;10.70;5.68;;;12.00;34.70;;;;;;5055231;28;20029;-72
2022/03/12 01:19:39;;;;;;;10.13;5.93;;;12.00;34.70;;;;;;5053329;28;20025;-72
2022/03/12 01:22:05;;;;;;;10.77;5.85;;;12.00;34.80;;;;;;5037371;28;20358;-72
2022/03/12 01:24:32;;;;;;;11.35;7.10;;;11.90;34.80;;;;;;5050397;28;20021;-72
2022/03/12 01:26:58;;;;;;;12.65;6.88;;;11.90;34.80;;;;;;5054252;28;20032;-72
2022/03/12 01:29:24;;;;;;;11.65;6.03;;;11.90;34.90;;;;;;5043104;28;20041;-72
2022/03/12 01:31:50;;;;;;;12.43;5.78;;;11.90;35.00;;;;;;5023760;28;20045;-72
2022/03/12 01:34:17;;;;;;;13.40;6.30;;;11.90;35.00;;;;;;5043177;28;20454;-72
2022/03/12 01:36:43;;;;;;;10.00;6.03;;;11.90;35.10;;;;;;5033995;28;20367;-73
2022/03/12 01:39:09;;;;;;;12.82;6.88;;;11.90;35.10;;;;;;5034241;28;20032;-73
2022/03/12 01:41:40;;;;;;;11.63;6.90;;;11.90;35.20;;;;;;5034617;28;20039;-73
2022/03/12 01:44:07;;;;;;;11.48;6.28;;;11.90;35.30;;;;;;5040728;28;20424;-72
2022/03/12 01:46:46;;;;;;;11.85;6.55;;;11.90;35.30;;;;;;5037273;28;20017;-72
2022/03/12 01:49:13;;;;;;;10.82;6.28;;;11.90;35.30;;;;;;5046669;28;20120;-72
2022/03/12 01:51:41;;;;;;;11.75;5.82;;;11.90;35.40;;;;;;5034927;28;20037;-72
2022/03/12 01:54:07;;;;;;;13.80;6.80;;;11.90;35.40;;;;;;5040060;28;20029;-72
2022/03/12 01:56:38;;;;;;;10.35;5.85;;;11.90;35.50;;;;;;5053512;28;20029;-72
2022/03/12 01:59:05;;;;;;;13.15;6.40;;;11.90;35.50;;;;;;5053283;28;20457;-72
2022/03/12 02:01:31;;;;;;;11.18;6.10;;;11.90;35.60;;;;;;5052183;28;20032;-72
2022/03/12 02:03:59;;;;;;;10.07;5.88;;;11.90;36.40;;;;;;5042268;28;20067;-72
2022/03/12 02:06:27;;;;;;;10.65;5.95;;;11.90;35.90;;;;;;5034527;28;20045;-73
2022/03/12 02:08:57;;;;;;;11.52;6.60;;;11.90;36.00;;;;;;5035896;28;20021;-73
2022/03/12 02:11:27;;;;;;;11.38;6.13;;;11.90;36.30;;;;;;5036623;28;20087;-72
2022/03/12 02:14:01;;;;;;;11.00;5.88;;;11.90;36.50;;;;;;5038452;28;20037;-73
2022/03/12 02:16:27;;;;;;;11.00;6.30;;;11.90;37.00;;;;;;5050880;28;20362;-73
2022/03/12 02:18:52;;;;;;;12.30;6.47;;;11.90;37.30;;;;;;5017481;28;20022;-73
2022/03/12 02:21:30;;;;;;;12.95;6.50;;;11.80;37.50;;;;;;5053064;28;20476;-73
2022/03/12 02:23:56;;;;;;;12.98;6.47;;;11.80;37.90;;;;;;5052598;28;20029;-72
2022/03/12 02:26:22;;;;;;;12.93;6.97;;;11.80;38.20;;;;;;5034692;28;20029;-72
2022/03/12 02:28:47;;;;;;;13.48;6.60;;;11.80;38.60;;;;;;5041280;28;20426;-72
2022/03/12 02:31:15;;;;;;;10.88;6.35;;;11.80;38.90;;;;;;5035559;28;20357;-72
2022/03/12 02:33:43;;;;;;;11.80;6.90;;;11.70;39.20;;;;;;5043831;28;20036;-73
2022/03/12 02:36:12;;;;;;;10.05;5.85;;;11.70;39.50;;;;;;5033611;28;20034;-72
2022/03/12 02:38:40;;;;;;;11.77;6.55;;;11.70;39.80;;;;;;5039757;28;20068;-72
2022/03/12 02:41:10;;;;;;;13.00;6.80;;;11.70;40.00;;;;;;5037915;28;20036;-72
2022/03/12 02:43:43;;;;;;;10.65;6.53;;;11.70;40.20;;;;;;5034891;28;20091;-72
2022/03/12 02:46:09;;;;;;;11.88;7.13;;;11.70;40.40;;;;;;5047267;28;20033;-73
2022/03/12 02:48:35;;;;;;;11.82;6.78;;;11.60;40.50;;;;;;5053404;28;20035;-73
2022/03/12 02:51:01;;;;;;;12.57;7.47;;;11.60;40.60;;;;;;5038303;28;20110;-72
2022/03/12 02:53:27;;;;;;;11.32;7.13;;;11.60;40.70;;;;;;5036653;28;20367;-72
2022/03/12 02:55:53;;;;;;;16.52;6.38;;;11.60;40.80;;;;;;5037993;28;20034;-72
2022/03/12 02:58:18;;;;;;;11.73;6.95;;;11.60;40.90;;;;;;5043715;28;20067;-73
2022/03/12 03:00:44;;;;;;;13.43;7.18;;;11.60;41.10;;;;;;5051086;28;20033;-72
2022/03/12 03:03:09;;;;;;;12.77;6.82;;;11.60;41.20;;;;;;5048674;28;20465;-72
2022/03/12 03:05:47;;;;;;;12.85;7.65;;;11.60;41.20;;;;;;5045561;28;20219;-72
2022/03/12 03:08:21;;;;;;;12.50;6.85;;;11.60;41.30;;;;;;5034635;28;20080;-73
2022/03/12 03:10:51;;;;;;;17.60;7.13;;;11.60;41.30;;;;;;5048044;28;20045;-72
2022/03/12 03:13:17;;;;;;;12.27;6.75;;;11.50;41.20;;;;;;5049330;28;20025;-72
2022/03/12 03:16:05;;;;;;;11.68;6.95;;;11.50;41.30;;;;;;5046775;28;20039;-72
2022/03/12 03:18:32;;;;;;;12.07;7.07;;;11.50;41.40;;;;;;5049902;28;20120;-72
2022/03/12 03:21:00;;;;;;;11.05;6.85;;;11.50;41.40;;;;;;5041563;28;20101;-72
2022/03/12 03:23:28;;;;;;;12.90;7.43;;;11.50;41.50;;;;;;5045773;28;20123;-72
2022/03/12 03:25:54;;;;;;;13.20;7.95;;;11.60;41.70;;;;;;5047109;28;20036;-72
2022/03/12 03:28:20;;;;;;;12.30;6.93;;;11.50;41.70;;;;;;5041449;28;20135;-72
2022/03/12 03:30:46;;;;;;;17.23;7.43;;;11.50;41.70;;;;;;5049200;28;20079;-73
2022/03/12 03:33:14;;;;;;;12.00;7.10;;;11.50;41.70;;;;;;5041571;28;20509;-72
2022/03/12 03:35:40;;;;;;;12.10;7.35;;;11.50;41.80;;;;;;5033084;28;20029;-72
2022/03/12 03:38:08;;;;;;;13.02;7.43;;;11.50;41.80;;;;;;5040882;28;20113;-72
2022/03/12 03:40:34;;;;;;;11.50;7.65;;;11.50;41.80;;;;;;5048124;28;20025;-72
2022/03/12 03:43:00;;;;;;;14.43;7.70;;;11.50;41.90;;;;;;5055503;28;20021;-73
2022/03/12 03:45:28;;;;;;;13.07;7.75;;;11.60;41.90;;;;;;5053808;28;20016;-72
2022/03/12 03:47:57;;;;;;;12.52;7.95;;;11.50;42.00;;;;;;5037087;28;20026;-73
2022/03/12 03:50:25;;;;;;;12.77;7.43;;;11.60;42.10;;;;;;5036820;28;20029;-73
2022/03/12 03:52:58;;;;;;;12.80;7.80;;;11.50;42.20;;;;;;5038188;28;20044;-72
2022/03/12 03:55:25;;;;;;;13.50;7.47;;;11.60;42.30;;;;;;5054960;28;20044;-73
2022/03/12 03:57:53;;;;;;;13.65;8.10;;;11.60;42.40;;;;;;5051148;28;20434;-72
2022/03/12 04:00:22;;;;;;;16.52;8.13;;;11.50;42.40;;;;;;5038463;28;20370;-73
2022/03/12 04:03:02;;;;;;;15.88;7.38;;;11.50;42.40;;;;;;5052867;28;20026;-72
2022/03/12 04:05:34;;;;;;;13.35;7.80;;;11.60;42.40;;;;;;5053642;28;20032;-73
2022/03/12 04:08:00;;;;;;;16.80;8.02;;;11.60;42.40;;;;;;5036921;28;20032;-73
2022/03/12 04:10:29;;;;;;;13.32;7.40;;;11.50;42.30;;;;;;5038436;28;20112;-72
2022/03/12 04:12:57;;;;;;;13.25;7.53;;;11.60;42.40;;;;;;5049503;28;20099;-73
2022/03/12 04:15:23;;;;;;;12.25;6.95;;;11.50;42.30;;;;;;5056638;28;20441;-72
2022/03/12 04:17:51;;;;;;;13.52;7.93;;;11.60;42.40;;;;;;5035473;28;20037;-72
2022/03/12 04:20:18;;;;;;;15.73;8.15;;;11.60;42.40;;;;;;5036060;28;20454;-73
2022/03/12 04:22:49;;;;;;;12.63;7.30;;;11.60;42.40;;;;;;5052926;28;20078;-73
2022/03/12 04:25:15;;;;;;;13.20;8.23;;;11.60;42.30;;;;;;5055095;28;20124;-73
2022/03/12 04:27:44;;;;;;;12.93;8.13;;;11.60;42.40;;;;;;5037471;28;20041;-72
2022/03/12 04:30:11;;;;;;;12.45;7.47;;;11.60;42.40;;;;;;5036154;28;20053;-73
2022/03/12 04:32:37;;;;;;;15.20;8.23;;;11.60;42.50;;;;;;5036806;28;20029;-73
2022/03/12 04:35:05;;;;;;;14.60;7.93;;;11.60;42.50;;;;;;5049125;28;20040;-72
2022/03/12 04:37:35;;;;;;;14.48;8.18;;;11.60;42.50;;;;;;5033547;28;20048;-72
2022/03/12 04:40:04;;;;;;;13.35;8.18;;;11.60;42.60;;;;;;5032919;28;20049;-72
2022/03/12 04:42:30;;;;;;;12.05;7.85;;;11.60;42.70;;;;;;5033485;28;20025;-72
2022/03/12 04:44:55;;;;;;;14.98;8.73;;;11.60;42.80;;;;;;5034340;28;20017;-72
2022/03/12 04:47:24;;;;;;;14.18;8.23;;;11.60;42.90;;;;;;5036695;28;20025;-72
2022/03/12 04:49:50;;;;;;;13.38;7.65;;;11.60;43.10;;;;;;5034763;28;20048;-72
2022/03/12 04:52:18;;;;;;;14.50;8.60;;;11.60;43.20;;;;;;5037714;28;20051;-72
2022/03/12 04:54:43;;;;;;;14.00;7.43;;;11.60;43.30;;;;;;5040370;28;20112;-73
2022/03/12 04:57:09;;;;;;;14.77;8.50;;;11.60;43.40;;;;;;5034123;28;20124;-72
2022/03/12 04:59:38;;;;;;;14.05;8.57;;;11.60;43.60;;;;;;5034068;28;20060;-72
2022/03/12 05:02:05;;;;;;;13.63;8.32;;;11.50;43.60;;;;;;5037107;28;20105;-72
2022/03/12 05:04:31;;;;;;;14.60;8.13;;;11.50;43.70;;;;;;5038344;28;20506;-72
2022/03/12 05:06:56;;;;;;;15.68;7.68;;;11.50;43.90;;;;;;5035055;28;20136;-72
2022/03/12 05:09:22;;;;;;;11.43;7.15;;;11.40;43.90;;;;;;5038343;28;20464;-72
2022/03/12 05:11:49;;;;;;;14.35;8.10;;;11.40;44.10;;;;;;5035537;28;20049;-72
2022/03/12 05:14:16;;;;;;;13.85;7.90;;;11.40;44.20;;;;;;5043221;28;20033;-73
2022/03/12 05:16:44;;;;;;;14.73;8.25;;;11.40;44.30;;;;;;5051448;28;20056;-72
2022/03/12 05:19:10;;;;;;;13.82;8.13;;;11.40;44.40;;;;;;5055190;28;20323;-72
2022/03/12 05:21:37;;;;;;;14.57;8.38;;;11.30;44.50;;;;;;5051526;28;20072;-72
2022/03/12 05:24:02;;;;;;;15.57;8.73;;;11.30;44.60;;;;;;5034322;28;20457;-72
2022/03/12 05:26:28;;;;;;;14.20;8.63;;;11.30;44.70;;;;;;5034287;28;20033;-72
2022/03/12 05:28:54;;;;;;;12.40;7.88;;;11.30;44.90;;;;;;5045375;28;20033;-73
2022/03/12 05:31:19;;;;;;;14.15;7.95;;;11.30;45.00;;;;;;5034699;28;20087;-72
2022/03/12 05:33:46;;;;;;;13.88;8.18;;;11.20;45.10;;;;;;5034858;28;20037;-72
2022/03/12 05:36:12;;;;;;;14.15;8.70;;;11.20;45.20;;;;;;5034752;28;20095;-72
2022/03/12 05:38:38;;;;;;;13.63;7.60;;;11.20;45.40;;;;;;5034367;28;20420;-72
2022/03/12 05:41:11;;;;;;;15.30;7.88;;;11.20;45.60;;;;;;5034871;28;20021;-72
2022/03/12 05:43:40;;;;;;;13.20;8.23;;;11.10;45.60;;;;;;5047371;28;20029;-72
2022/03/12 05:46:06;;;;;;;14.40;8.43;;;11.10;45.80;;;;;;5053409;28;20017;-73
2022/03/12 05:48:32;;;;;;;12.73;7.95;;;11.10;46.00;;;;;;5042493;28;20033;-73
2022/03/12 05:50:59;;;;;;;15.07;8.40;;;11.10;46.10;;;;;;5022262;28;20033;-72
2022/03/12 05:53:25;;;;;;;13.52;8.23;;;11.00;46.10;;;;;;5030259;28;20377;-72
2022/03/12 05:55:51;;;;;;;13.35;8.07;;;11.00;46.30;;;;;;5053874;28;20080;-71
2022/03/12 05:58:19;;;;;;;11.55;6.95;;;11.00;46.30;;;;;;5042239;28;20064;-72
2022/03/12 06:00:47;;;;;;;13.32;7.88;;;11.00;46.40;;;;;;5045190;28;20453;-74
2022/03/12 06:03:13;;;;;;;13.23;8.23;;;11.00;46.40;;;;;;5050878;28;20029;-73
2022/03/12 06:05:42;;;;;;;15.65;8.40;;;11.00;46.40;;;;;;5038788;28;20021;-73
2022/03/12 06:08:11;;;;;;;13.73;8.00;;;10.90;46.50;;;;;;5042212;28;20373;-73
2022/03/12 06:10:46;;;;;;;13.75;7.63;;;10.90;46.50;;;;;;5036940;28;20033;-73
2022/03/12 06:13:13;;;;;;;13.40;8.48;;;10.90;46.50;;;;;;5041024;28;20092;-71
2022/03/12 06:15:39;;;;;;;14.00;8.07;;;10.90;46.60;;;;;;5034268;28;20049;-70
2022/03/12 06:18:06;;;;;;;13.43;8.25;;;10.90;46.70;;;;;;5040068;28;20037;-70
2022/03/12 06:20:35;;;;;;;14.90;8.40;;;10.90;46.70;;;;;;5034840;28;20039;-71
2022/03/12 06:23:00;;;;;;;16.63;8.20;;;11.00;46.80;;;;;;5047676;28;20037;-72
2022/03/12 06:25:26;;;;;;;14.82;8.27;;;10.90;46.80;;;;;;5033081;28;20378;-72
2022/03/12 06:27:54;;;;;;;15.25;7.57;;;10.90;46.90;;;;;;5037790;28;20036;-72
2022/03/12 06:30:23;;;;;;;11.93;7.45;;;11.00;47.00;;;;;;5049612;28;20401;-72
2022/03/12 06:32:49;;;;;;;12.00;7.07;;;10.90;47.00;;;;;;5042925;28;20103;-70
2022/03/12 06:35:16;;;;;;;12.95;7.75;;;10.90;47.10;;;;;;5036897;28;20378;-70
2022/03/12 06:37:42;;;;;;;12.77;7.40;;;10.90;47.10;;;;;;5037732;28;20474;-69
2022/03/12 06:40:10;;;;;;;15.30;8.52;;;10.90;47.10;;;;;;5049084;28;20416;-69
2022/03/12 06:42:38;;;;;;;14.20;8.15;;;11.00;47.10;;;;;;5057966;28;20029;-72
2022/03/12 06:45:04;;;;;;;13.13;8.27;;;11.00;47.10;;;;;;5021335;28;20123;-72
2022/03/12 06:47:30;;;;;;;13.60;7.93;;;11.10;47.20;;;;;;5050740;28;20025;-72
2022/03/12 06:49:58;;;;;;;11.77;7.20;;;11.00;47.10;;;;;;5044309;28;20037;-73
2022/03/12 06:52:24;;;;;;;12.75;7.30;;;11.10;47.00;;;;;;5037812;28;20033;-74
2022/03/12 06:54:51;;;;;;;13.55;7.13;;;11.10;47.00;;;;;;5053408;28;20040;-73
2022/03/12 06:57:18;;;;;;;12.75;7.45;;;11.10;47.00;;;;;;5037656;28;20033;-73
2022/03/12 06:59:43;;;;;;;13.90;7.75;;;11.10;46.90;;;;;;5038667;28;20485;-71
2022/03/12 07:02:09;;;;;;;13.02;7.15;;;11.20;46.90;;;;;;5037450;28;20026;-71
2022/03/12 07:04:34;;;;;;;12.85;7.85;;;11.20;46.90;;;;;;5038518;28;20026;-70
2022/03/12 07:07:03;;;;;;;13.40;8.35;;;11.20;46.90;;;;;;5048557;28;20431;-70
2022/03/12 07:09:29;;;;;;;14.45;7.68;;;11.30;46.90;;;;;;5046758;28;20021;-71
2022/03/12 07:11:58;;;;;;;13.52;7.72;;;11.30;46.90;;;;;;5055930;28;20040;-71
2022/03/12 07:14:26;;;;;;;13.30;6.78;;;11.30;46.90;;;;;;5044974;28;20025;-70
2022/03/12 07:16:52;;;;;;;13.70;7.65;;;11.40;46.90;;;;;;5036078;28;20037;-70
2022/03/12 07:19:18;;;;;;;23.27;8.27;;;11.40;47.00;;;;;;5044823;28;20055;-69
2022/03/12 07:21:43;;;;;;;13.43;7.97;;;11.50;46.90;;;;;;5046253;28;20033;-70
2022/03/12 07:24:09;;;;;;;14.52;7.93;;;11.60;46.90;;;;;;5045753;28;20033;-70
2022/03/12 07:26:35;;;;;;;11.73;7.10;;;11.60;47.00;;;;;;5042059;28;20044;-70
2022/03/12 07:29:01;;;;;;;13.30;7.97;;;11.60;47.00;;;;;;5049896;28;20029;-70
2022/03/12 07:31:27;;;;;;;12.82;7.50;;;11.70;47.00;;;;;;5055363;28;20450;-70
2022/03/12 07:33:53;;;;;;;11.50;7.18;;;11.70;47.00;;;;;;5049124;28;20450;-70
2022/03/12 07:36:22;;;;;;;11.82;6.82;;;11.80;47.10;;;;;;5055514;28;20102;-70
2022/03/12 07:38:48;;;;;;;13.05;7.50;;;11.90;47.10;;;;;;5054997;28;20033;-71
2022/03/12 07:41:13;;;;;;;12.55;7.40;;;11.90;47.10;;;;;;5018892;28;20442;-71
2022/03/12 07:43:39;;;;;;;13.35;7.30;;;11.90;47.10;;;;;;5041421;28;20337;-72
2022/03/12 07:46:05;;;;;;;12.50;7.55;;;11.90;47.10;;;;;;5037157;28;20100;-72
2022/03/12 07:48:31;;;;;;;13.98;6.85;;;12.00;47.20;;;;;;5035931;28;20059;-72
2022/03/12 07:50:58;;;;;;;12.23;6.38;;;12.00;47.30;;;;;;5019386;28;20030;-72
2022/03/12 07:53:24;;;;;;;10.85;6.45;;;12.00;47.30;;;;;;5036895;28;20029;-71
2022/03/12 07:55:49;;;;;;;10.50;6.68;;;12.10;47.40;;;;;;5036983;28;20037;-72
2022/03/12 07:58:16;;;;;;;11.10;6.65;;;12.10;47.50;;;;;;5036454;28;20458;-72
2022/03/12 08:00:42;;;;;;;11.02;6.57;;;12.10;47.50;;;;;;5037096;28;20030;-72
2022/03/12 08:03:08;;;;;;;10.27;6.53;;;12.20;47.60;;;;;;5052421;28;20025;-72
2022/03/12 08:05:34;;;;;;;11.85;7.07;;;12.20;47.60;;;;;;5056135;28;20345;-71
2022/03/12 08:08:00;;;;;;;13.68;6.82;;;12.20;47.70;;;;;;5038593;28;20033;-71
2022/03/12 08:10:26;;;;;;;11.73;6.70;;;12.30;47.80;;;;;;5053725;28;20065;-71
2022/03/12 08:12:52;;;;;;;12.40;7.45;;;12.40;47.80;;;;;;5025850;28;20118;-71
2022/03/12 08:15:20;;;;;;;10.57;6.10;;;12.40;47.80;;;;;;5019494;28;20117;-71
2022/03/12 08:17:47;;;;;;;12.43;6.93;;;12.50;47.80;;;;;;5019467;28;20120;-71
2022/03/12 08:20:13;;;;;;;11.10;7.22;;;12.60;47.80;;;;;;5039716;28;20095;-70
2022/03/12 08:22:41;;;;;;;10.77;6.28;;;12.70;47.70;;;;;;5054429;28;20025;-71
2022/03/12 08:25:09;;;;;;;10.70;6.88;;;12.90;47.60;;;;;;5054359;28;20025;-71
2022/03/12 08:27:37;;;;;;;13.02;6.30;;;13.10;47.50;;;;;;5054018;28;20033;-71
2022/03/12 08:30:08;;;;;;;11.02;6.30;;;13.20;47.40;;;;;;5055097;28;20080;-70
2022/03/12 08:32:36;;;;;;;10.15;6.10;;;13.40;47.40;;;;;;5045510;28;20036;-68
2022/03/12 08:35:05;;;;;;;12.48;6.18;;;13.50;47.30;;;;;;5036473;28;20330;-70
2022/03/12 08:37:31;;;;;;;11.38;6.07;;;13.50;47.40;;;;;;5041155;28;20092;-71
2022/03/12 08:39:57;;;;;;;11.35;6.40;;;13.60;47.60;;;;;;5047734;28;20025;-71
2022/03/12 08:42:24;;;;;;;10.45;6.07;;;13.60;47.60;;;;;;5046662;28;20100;-72
2022/03/12 08:44:50;;;;;;;9.98;6.32;;;13.70;47.80;;;;;;5044338;28;20099;-72
2022/03/12 08:47:18;;;;;;;12.43;6.13;;;13.70;47.90;;;;;;5047627;28;20026;-72
2022/03/12 08:49:44;;;;;;;10.55;6.53;;;13.70;48.00;;;;;;5045254;28;20037;-71
2022/03/12 08:52:09;;;;;;;11.13;6.13;;;13.70;48.80;;;;;;5037535;28;20044;-70
2022/03/12 08:54:35;;;;;;;13.32;6.35;;;13.80;48.40;;;;;;5046051;28;20021;-70
2022/03/12 08:57:02;;;;;;;10.30;5.90;;;13.90;48.50;;;;;;5042339;28;20047;-72
2022/03/12 08:59:28;;;;;;;9.68;5.68;;;13.90;48.50;;;;;;5037878;28;20025;-71
2022/03/12 09:01:53;;;;;;;10.27;5.88;;;14.00;48.70;;;;;;5028628;28;20033;-71
2022/03/12 09:04:19;;;;;;;9.90;5.55;;;14.10;48.80;;;;;;5040752;28;20025;-72
2022/03/12 09:06:46;;;;;;;8.77;5.22;;;14.30;48.90;;;;;;5040244;28;20033;-71
2022/03/12 09:09:12;;;;;;;10.48;5.55;;;14.30;49.00;;;;;;5054005;28;20025;-72
2022/03/12 09:11:38;;;;;;;9.80;5.07;;;14.40;49.10;;;;;;5046941;28;20029;-72
2022/03/12 09:14:04;;;;;;;8.38;5.15;;;14.50;49.30;;;;;;5035445;28;20061;-72
2022/03/12 09:16:30;;;;;;;9.95;6.00;;;14.60;49.30;;;;;;5040980;28;20052;-72
2022/03/12 09:18:56;;;;;;;9.45;5.47;;;14.70;49.40;;;;;;5046516;28;20036;-72
2022/03/12 09:21:22;;;;;;;9.43;5.68;;;14.80;49.50;;;;;;5042448;28;20026;-71
2022/03/12 09:23:47;;;;;;;9.98;5.75;;;15.00;49.40;;;;;;5042352;28;20025;-70
2022/03/12 09:26:14;;;;;;;9.15;5.32;;;15.20;49.50;;;;;;5048931;28;20018;-68
2022/03/12 09:28:41;;;;;;;10.00;5.15;;;15.30;49.50;;;;;;5022330;28;20037;-71
2022/03/12 09:31:09;;;;;;;9.07;5.40;;;15.30;49.60;;;;;;5047018;28;20068;-71
2022/03/12 09:33:35;;;;;;;11.05;5.28;;;15.40;49.60;;;;;;5044229;28;20095;-72
2022/03/12 09:36:01;;;;;;;10.25;5.80;;;15.40;49.70;;;;;;5040610;28;20055;-71
2022/03/12 09:38:27;;;;;;;11.02;6.07;;;15.50;49.80;;;;;;5048858;28;20099;-74
2022/03/12 09:40:53;;;;;;;10.15;5.63;;;15.50;49.90;;;;;;5045680;28;20021;-73
2022/03/12 09:43:19;;;;;;;9.85;5.03;;;15.50;50.20;;;;;;5053337;28;20033;-73
2022/03/12 09:45:45;;;;;;;10.50;5.28;;;15.40;50.40;;;;;;5050027;28;20330;-72
2022/03/12 09:48:10;;;;;;;13.80;5.50;;;15.30;50.70;;;;;;5044374;28;20091;-75
2022/03/12 09:50:37;;;;;;;10.85;5.25;;;15.20;50.90;;;;;;5039861;28;20044;-74
2022/03/12 09:53:03;;;;;;;10.73;4.90;;;15.20;51.20;;;;;;5042956;28;20033;-72
2022/03/12 09:55:29;;;;;;;9.07;4.65;;;15.20;51.30;;;;;;5052591;28;20043;-74
2022/03/12 09:57:55;;;;;;;8.75;4.78;;;15.20;51.30;;;;;;5046532;28;20166;-71
2022/03/12 10:00:21;;;;;;;9.40;5.22;;;15.30;51.40;;;;;;5047365;28;20104;-73
2022/03/12 10:02:46;;;;;;;9.52;4.85;;;15.30;51.40;;;;;;5036581;28;20033;-73
2022/03/12 10:05:13;;;;;;;8.15;4.13;;;15.40;52.00;;;;;;5043553;28;20331;-73
2022/03/12 10:07:41;;;;;;;9.75;4.43;;;15.50;51.40;;;;;;5044341;28;20052;-72
2022/03/12 10:10:11;;;;;;;8.45;4.43;;;15.50;51.30;;;;;;5049173;28;20033;-72
2022/03/12 10:12:37;;;;;;;9.30;4.70;;;15.60;51.50;;;;;;5050833;28;20159;-74
2022/03/12 10:15:03;;;;;;;8.73;4.45;;;15.60;51.60;;;;;;5049051;28;20061;-74
2022/03/12 10:17:30;;;;;;;11.90;5.03;;;15.60;51.60;;;;;;5025549;28;20033;-72
2022/03/12 10:19:56;;;;;;;8.82;5.15;;;15.60;51.70;;;;;;5037565;28;20041;-69
2022/03/12 10:22:23;;;;;;;9.68;4.35;;;15.50;51.80;;;;;;5043462;28;20025;-71
2022/03/12 10:24:49;;;;;;;8.10;4.55;;;15.50;52.00;;;;;;5050653;28;20022;-72
2022/03/12 10:27:15;;;;;;;8.98;4.18;;;15.50;52.10;;;;;;5034754;28;20040;-71
2022/03/12 10:29:40;;;;;;;8.85;4.50;;;15.50;52.20;;;;;;5046491;28;20377;-70
2022/03/12 10:32:30;;;;;;;9.35;4.30;;;15.50;52.30;;;;;;5043821;28;20033;-71
2022/03/12 10:34:59;;;;;;;8.98;4.50;;;15.50;52.30;;;;;;5032833;28;20033;-70
2022/03/12 10:37:28;;;;;;;8.77;5.03;;;15.50;52.30;;;;;;5039039;28;20042;-71
2022/03/12 10:40:03;;;;;;;9.40;4.57;;;15.40;52.50;;;;;;5035512;28;20115;-72
2022/03/12 10:42:31;;;;;;;8.48;4.50;;;15.40;52.80;;;;;;5033705;28;20124;-72
2022/03/12 10:45:10;;;;;;;9.65;3.88;;;15.40;52.70;;;;;;5034856;28;20353;-72
2022/03/12 10:47:41;;;;;;;8.55;3.85;;;15.40;52.70;;;;;;5044910;28;20458;-72
2022/03/12 10:50:11;;;;;;;9.20;4.15;;;15.40;52.60;;;;;;5036889;28;20095;-72
2022/03/12 10:52:46;;;;;;;9.10;3.70;;;15.40;52.50;;;;;;5047223;28;20057;-72
2022/03/12 10:55:22;;;;;;;6.78;3.50;;;15.40;52.50;;;;;;5039128;28;20061;-72
2022/03/12 10:57:54;;;;;;;8.27;3.67;;;15.40;52.50;;;;;;5045381;28;20442;-72
2022/03/12 11:00:20;;;;;;;7.00;3.20;;;15.40;52.50;;;;;;5047921;28;20061;-72
2022/03/12 11:02:58;;;;;;;7.30;3.08;;;15.40;52.40;;;;;;5040689;28;20021;-71
2022/03/12 11:05:29;;;;;;;8.40;3.45;;;15.40;52.20;;;;;;5038233;28;20454;-69
2022/03/12 11:08:17;;;;;;;7.03;2.92;;;15.40;52.10;;;;;;5041692;28;20032;-71
2022/03/12 11:10:50;;;;;;;7.25;3.10;;;15.40;51.90;;;;;;5040813;28;20029;-71
2022/03/12 11:13:32;;;;;;;8.52;3.53;;;15.40;51.80;;;;;;5044586;28;20025;-72
2022/03/12 11:16:12;;;;;;;9.15;2.70;;;15.40;51.70;;;;;;5051290;28;20382;-71
2022/03/12 11:18:53;;;;;;;6.45;3.28;;;15.50;51.60;;;;;;5057330;28;20440;-70
2022/03/12 11:21:39;;;;;;;7.25;3.33;;;15.50;51.50;;;;;;5041106;28;20029;-70
2022/03/12 11:24:09;;;;;;;7.03;2.72;;;15.50;51.50;;;;;;5038840;28;20037;-71
2022/03/12 11:26:46;;;;;;;7.47;3.15;;;15.50;51.40;;;;;;5054794;28;20055;-70
2022/03/12 11:29:12;;;;;;;7.20;3.65;;;15.60;51.40;;;;;;5036794;28;20034;-71
2022/03/12 11:31:46;;;;;;;8.40;3.40;;;15.60;51.30;;;;;;5045947;28;20116;-71
2022/03/12 11:34:24;;;;;;;7.82;3.47;;;15.60;51.30;;;;;;5036318;28;20368;-71
2022/03/12 11:37:14;;;;;;;7.72;3.42;;;15.50;51.20;;;;;;5049347;28;20025;-72
2022/03/12 11:39:46;;;;;;;;;;;15.50;51.30;;;;;;5051622;28;20032;-71
2022/03/12 11:42:20;;;;;;;9.80;3.08;;;15.50;51.20;;;;;;5052218;28;19909;-72
2022/03/12 11:45:01;;;;;;;6.93;2.90;;;15.70;51.10;;;;;;5049767;28;20036;-71
2022/03/12 11:47:35;;;;;;;7.18;3.05;;;15.90;50.80;;;;;;5032460;28;20025;-71
2022/03/12 11:50:04;;;;;;;6.32;2.75;;;16.10;50.50;;;;;;5038396;28;20299;-71
2022/03/12 11:52:30;;;;;;;7.53;2.90;;;16.20;50.20;;;;;;5042115;28;20063;-72
2022/03/12 11:54:57;;;;;;;6.90;3.35;;;16.30;50.10;;;;;;5042517;28;20063;-72
2022/03/12 11:57:34;;;;;;;7.55;3.53;;;16.30;49.90;;;;;;5046205;28;20033;-71
2022/03/12 12:00:10;;;;;;;6.82;3.00;;;16.30;49.80;;;;;;5044361;28;20040;-71
2022/03/12 12:02:40;;;;;;;6.78;3.17;;;16.50;49.90;;;;;;5049108;28;20065;-71
2022/03/12 12:05:10;;;;;;;9.57;3.78;;;16.50;49.80;;;;;;5041754;28;20053;-71
2022/03/12 12:07:39;;;;;;;7.30;3.40;;;16.50;50.00;;;;;;5046351;28;20029;-71
2022/03/12 12:10:32;;;;;;;8.00;4.22;;;16.50;50.10;;;;;;5037390;28;20036;-71
2022/03/12 12:12:58;;;;;;;7.93;3.75;;;16.40;50.40;;;;;;5034511;28;20041;-71
2022/03/12 12:15:29;;;;;;;9.88;3.70;;;16.40;50.60;;;;;;5036307;28;20029;-71
2022/03/12 12:17:55;;;;;;;8.07;4.28;;;16.50;50.50;;;;;;5036602;28;20052;-71
2022/03/12 12:20:22;;;;;;;9.02;3.60;;;16.60;50.40;;;;;;5037482;28;20034;-72
2022/03/12 12:22:49;;;;;;;10.02;4.35;;;16.60;50.20;;;;;;5046987;28;20017;-71
2022/03/12 12:25:16;;;;;;;8.38;4.10;;;16.60;50.30;;;;;;5042442;28;20332;-71
2022/03/12 12:27:47;;;;;;;7.75;3.83;;;16.50;50.30;;;;;;5036916;28;20039;-71
2022/03/12 12:30:16;;;;;;;9.00;4.33;;;16.40;50.60;;;;;;5035415;28;20045;-71
2022/03/12 12:32:48;;;;;;;8.80;4.57;;;16.30;50.80;;;;;;5039679;28;20033;-71
2022/03/12 12:35:16;;;;;;;8.73;4.18;;;16.30;51.00;;;;;;5037668;28;20032;-70
2022/03/12 12:37:46;;;;;;;9.43;4.43;;;16.30;51.00;;;;;;5044302;28;20064;-71
2022/03/12 12:40:24;;;;;;;11.27;4.35;;;16.20;51.00;;;;;;5003015;28;20049;-71
2022/03/12 12:42:51;;;;;;;8.40;4.20;;;16.20;51.10;;;;;;5039137;28;20033;-71
2022/03/12 12:45:26;;;;;;;8.70;3.95;;;16.20;51.20;;;;;;5039502;28;20114;-71